createdAt,value
2023-05-14T00:02:44.880Z,12.15
2023-05-14T00:05:49.364Z,14.07
2023-05-14T00:08:52.715Z,12.37
2023-05-14T00:11:56.205Z,11.95
2023-05-14T00:14:59.611Z,13.15
2023-05-14T00:18:03.427Z,11.75
2023-05-14T00:21:06.891Z,13.88
2023-05-14T00:24:10.250Z,13.23
2023-05-14T00:27:14.060Z,13.30
2023-05-14T00:30:17.470Z,12.65
2023-05-14T00:33:20.821Z,14.80
2023-05-14T00:36:24.264Z,15.70
2023-05-14T00:39:27.683Z,15.43
2023-05-14T00:42:31.049Z,13.27
2023-05-14T00:45:34.557Z,11.88
2023-05-14T00:48:37.961Z,12.68
2023-05-14T00:51:42.367Z,14.68
2023-05-14T00:54:48.225Z,14.17
2023-05-14T00:57:53.447Z,17.77
2023-05-14T01:00:56.865Z,11.68
2023-05-14T01:04:00.854Z,12.80
2023-05-14T01:07:28.917Z,13.35
2023-05-14T01:11:05.344Z,14.97
2023-05-14T01:14:11.223Z,11.68
2023-05-14T01:17:20.088Z,12.48
2023-05-14T01:20:24.355Z,11.95
2023-05-14T01:23:27.921Z,13.93
2023-05-14T01:26:31.635Z,11.27
2023-05-14T01:29:38.607Z,13.63
2023-05-14T01:32:44.945Z,11.98
2023-05-14T01:35:49.102Z,12.95
2023-05-14T01:38:54.135Z,15.23
2023-05-14T01:41:57.846Z,13.03
2023-05-14T01:45:02.111Z,13.48
2023-05-14T01:48:06.581Z,13.52
2023-05-14T01:51:10.571Z,13.68
2023-05-14T01:54:13.866Z,13.10
2023-05-14T01:57:17.236Z,13.63
2023-05-14T02:00:22.388Z,12.13
2023-05-14T02:03:25.772Z,12.15
2023-05-14T02:06:29.183Z,12.40
2023-05-14T02:09:32.720Z,14.65
2023-05-14T02:12:36.296Z,13.43
2023-05-14T02:15:39.729Z,12.48
2023-05-14T02:18:43.166Z,16.13
2023-05-14T02:21:47.197Z,15.02
2023-05-14T02:24:51.507Z,14.77
2023-05-14T02:27:54.909Z,18.10
2023-05-14T02:31:01.713Z,14.40
2023-05-14T02:34:06.812Z,14.65
2023-05-14T02:37:10.338Z,14.52
2023-05-14T02:40:13.878Z,13.60
2023-05-14T02:43:17.239Z,13.27
2023-05-14T02:46:20.725Z,15.93
2023-05-14T02:49:24.046Z,15.70
2023-05-14T02:52:27.353Z,13.43
2023-05-14T02:55:31.202Z,13.60
2023-05-14T02:58:34.773Z,16.00
2023-05-14T03:01:38.387Z,12.10
2023-05-14T03:04:42.121Z,15.48
2023-05-14T03:07:45.530Z,11.35
2023-05-14T03:10:48.880Z,12.25
2023-05-14T03:13:52.291Z,12.47
2023-05-14T03:16:55.677Z,15.80
2023-05-14T03:19:59.035Z,14.02
2023-05-14T03:23:03.528Z,14.68
2023-05-14T03:26:06.955Z,12.90
2023-05-14T03:29:10.887Z,14.37
2023-05-14T03:32:14.710Z,14.93
2023-05-14T03:35:18.196Z,12.35
2023-05-14T03:38:21.574Z,11.52
2023-05-14T03:41:24.972Z,11.88
2023-05-14T03:44:28.754Z,11.07
2023-05-14T03:47:32.209Z,13.18
2023-05-14T03:50:37.124Z,11.48
2023-05-14T03:53:40.624Z,12.30
2023-05-14T03:56:43.918Z,14.23
2023-05-14T03:59:47.260Z,11.90
2023-05-14T04:02:50.732Z,12.38
2023-05-14T04:05:54.296Z,12.38
2023-05-14T04:08:57.613Z,11.13
2023-05-14T04:12:01.100Z,10.52
2023-05-14T04:15:05.162Z,10.53
2023-05-14T04:18:08.841Z,9.82
2023-05-14T04:21:12.587Z,8.93
2023-05-14T04:24:17.011Z,9.32
2023-05-14T04:27:23.502Z,7.45
2023-05-14T04:30:27.049Z,7.83
2023-05-14T04:33:30.408Z,9.25
2023-05-14T04:36:33.722Z,8.38
2023-05-14T04:39:38.514Z,8.65
2023-05-14T04:42:41.755Z,7.57
2023-05-14T04:45:45.230Z,7.93
2023-05-14T04:48:49.196Z,8.80
2023-05-14T04:51:52.590Z,7.47
2023-05-14T04:54:56.991Z,8.68
2023-05-14T04:58:00.449Z,9.00
2023-05-14T05:01:05.342Z,8.10
2023-05-14T05:04:08.838Z,6.95
2023-05-14T05:07:13.024Z,7.82
2023-05-14T05:10:16.501Z,7.15
2023-05-14T05:13:19.931Z,7.38
2023-05-14T05:16:23.353Z,7.00
2023-05-14T05:19:35.655Z,7.30
2023-05-14T05:22:43.343Z,5.90
2023-05-14T05:25:46.724Z,8.95
2023-05-14T05:28:50.108Z,7.50
2023-05-14T05:31:53.804Z,6.57
2023-05-14T05:34:58.020Z,6.45
2023-05-14T05:38:01.867Z,7.15
2023-05-14T05:41:05.352Z,6.22
2023-05-14T05:44:08.714Z,7.45
2023-05-14T05:47:12.120Z,8.73
2023-05-14T05:50:15.615Z,6.65
2023-05-14T05:53:19.080Z,7.00
2023-05-14T05:56:22.479Z,5.97
2023-05-14T05:59:25.964Z,6.68
2023-05-14T06:02:29.422Z,5.40
2023-05-14T06:05:32.908Z,5.88
2023-05-14T06:08:36.238Z,5.85
2023-05-14T06:11:39.572Z,4.93
2023-05-14T06:14:42.996Z,6.25
2023-05-14T06:17:46.390Z,5.73
2023-05-14T06:20:49.709Z,8.02
2023-05-14T06:23:53.258Z,5.28
2023-05-14T06:26:56.663Z,5.70
2023-05-14T06:29:59.983Z,7.55
2023-05-14T06:33:03.441Z,6.10
2023-05-14T06:36:08.440Z,6.50
2023-05-14T06:39:12.659Z,5.32
2023-05-14T06:42:16.530Z,8.07
2023-05-14T06:45:19.866Z,6.70
2023-05-14T06:48:23.390Z,7.13
2023-05-14T06:51:27.371Z,5.55
2023-05-14T06:54:31.258Z,5.38
2023-05-14T06:57:34.812Z,6.10
2023-05-14T07:00:38.246Z,7.15
2023-05-14T07:03:41.675Z,5.07
2023-05-14T07:06:45.129Z,5.75
2023-05-14T07:09:48.971Z,5.18
2023-05-14T07:12:52.434Z,4.60
2023-05-14T07:15:56.143Z,4.82
2023-05-14T07:18:59.572Z,5.33
2023-05-14T07:22:03.015Z,7.43
2023-05-14T07:25:06.707Z,5.15
2023-05-14T07:28:10.112Z,6.70
2023-05-14T07:31:13.536Z,6.68
2023-05-14T07:34:17.026Z,5.43
2023-05-14T07:37:24.165Z,5.07
2023-05-14T07:40:27.742Z,4.90
2023-05-14T07:43:31.344Z,4.70
2023-05-14T07:46:34.694Z,4.75
2023-05-14T07:49:38.041Z,8.00
2023-05-14T07:52:41.354Z,6.38
2023-05-14T07:55:48.253Z,6.50
2023-05-14T07:58:51.996Z,5.95
2023-05-14T08:01:55.303Z,5.88
2023-05-14T08:04:58.787Z,6.17
2023-05-14T08:08:02.702Z,4.32
2023-05-14T08:11:06.278Z,4.78
2023-05-14T08:14:09.655Z,5.38
2023-05-14T08:17:13.099Z,4.35
2023-05-14T08:20:16.598Z,6.10
2023-05-14T08:23:19.970Z,4.93
2023-05-14T08:26:23.330Z,4.25
2023-05-14T08:29:26.637Z,3.78
2023-05-14T08:32:30.531Z,7.10
2023-05-14T08:35:33.938Z,5.10
2023-05-14T08:38:37.295Z,5.78
2023-05-14T08:41:41.527Z,4.72
2023-05-14T08:44:50.243Z,4.13
2023-05-14T08:47:55.109Z,5.30
2023-05-14T08:50:59.459Z,5.47
2023-05-14T08:54:04.675Z,3.40
2023-05-14T08:57:10.815Z,5.18
2023-05-14T09:00:15.758Z,4.82
2023-05-14T09:03:19.356Z,7.10
2023-05-14T09:06:24.217Z,5.23
2023-05-14T09:09:28.088Z,6.55
2023-05-14T09:12:31.642Z,4.53
2023-05-14T09:15:37.482Z,3.88
2023-05-14T09:18:45.173Z,4.53
2023-05-14T09:21:49.996Z,4.17
2023-05-14T09:25:05.256Z,5.20
2023-05-14T09:28:09.882Z,4.38
2023-05-14T09:31:13.389Z,4.70
2023-05-14T09:34:26.083Z,6.78
2023-05-14T09:37:30.055Z,4.60
2023-05-14T09:40:33.378Z,4.22
2023-05-14T09:43:36.752Z,8.05
2023-05-14T09:46:40.108Z,6.35
2023-05-14T09:49:43.433Z,4.13
2023-05-14T09:52:46.783Z,5.70
2023-05-14T09:55:50.132Z,4.07
2023-05-14T09:58:53.597Z,4.93
2023-05-14T10:01:58.263Z,4.78
2023-05-14T10:05:04.760Z,7.90
2023-05-14T10:08:17.303Z,4.77
2023-05-14T10:11:22.456Z,6.82
2023-05-14T10:14:32.822Z,4.07
2023-05-14T10:17:37.596Z,4.55
2023-05-14T10:20:42.216Z,4.10
2023-05-14T10:23:46.990Z,9.47
2023-05-14T10:26:50.598Z,4.60
2023-05-14T10:29:55.185Z,3.35
2023-05-14T10:33:14.420Z,5.05
2023-05-14T10:36:22.360Z,4.38
2023-05-14T10:39:41.577Z,4.33
2023-05-14T10:42:46.461Z,3.97
2023-05-14T10:45:49.785Z,5.75
2023-05-14T10:48:53.442Z,4.25
2023-05-14T10:51:57.297Z,4.72
2023-05-14T10:55:03.650Z,4.93
2023-05-14T10:58:07.772Z,4.40
2023-05-14T11:01:13.176Z,4.70
2023-05-14T11:04:23.374Z,4.22
2023-05-14T11:07:56.078Z,3.47
2023-05-14T11:10:59.789Z,5.73
2023-05-14T11:14:03.491Z,3.53
2023-05-14T11:17:06.970Z,3.10
2023-05-14T11:20:11.192Z,3.92
2023-05-14T11:23:14.855Z,5.15
2023-05-14T11:26:20.780Z,4.37
2023-05-14T11:29:24.913Z,3.83
2023-05-14T11:32:28.618Z,2.85
2023-05-14T11:35:31.963Z,2.90
2023-05-14T11:38:35.285Z,3.58
2023-05-14T11:41:47.160Z,3.47
2023-05-14T11:44:52.171Z,5.45
2023-05-14T11:47:55.470Z,3.92
2023-05-14T11:50:59.290Z,3.58
2023-05-14T11:54:04.088Z,4.63
2023-05-14T11:57:16.725Z,5.83
2023-05-14T12:00:21.797Z,3.28
2023-05-14T12:03:26.980Z,4.13
2023-05-14T12:06:33.695Z,4.03
2023-05-14T12:09:39.327Z,3.33
2023-05-14T12:12:47.246Z,8.40
2023-05-14T12:15:58.320Z,7.07
2023-05-14T12:19:02.202Z,4.05
2023-05-14T12:22:05.765Z,3.05
2023-05-14T12:25:16.025Z,3.65
2023-05-14T12:28:20.263Z,3.73
2023-05-14T12:31:34.193Z,10.55
2023-05-14T12:34:38.979Z,4.47
2023-05-14T12:37:43.145Z,4.57
2023-05-14T12:40:46.588Z,4.32
2023-05-14T12:43:49.999Z,4.40
2023-05-14T12:46:53.480Z,3.58
2023-05-14T12:49:56.884Z,4.35
2023-05-14T12:53:00.347Z,3.72
2023-05-14T12:56:03.750Z,9.05
2023-05-14T12:59:07.218Z,5.30
2023-05-14T13:02:10.849Z,3.40
2023-05-14T13:05:14.246Z,4.20
2023-05-14T13:08:18.021Z,3.65
2023-05-14T13:11:21.877Z,6.75
2023-05-14T13:14:25.445Z,5.20
2023-05-14T13:17:29.035Z,4.15
2023-05-14T13:20:33.626Z,6.00
2023-05-14T13:23:36.924Z,3.05
2023-05-14T13:26:40.339Z,4.28
2023-05-14T13:29:43.639Z,4.77
2023-05-14T13:32:47.214Z,5.32
2023-05-14T13:35:50.577Z,4.03
2023-05-14T13:38:53.866Z,4.20
2023-05-14T13:41:57.255Z,5.45
2023-05-14T13:45:01.255Z,5.03
2023-05-14T13:48:04.734Z,6.20
2023-05-14T13:51:08.111Z,4.88
2023-05-14T13:54:11.537Z,3.90
2023-05-14T13:57:15.591Z,5.63
2023-05-14T14:00:19.276Z,4.57
2023-05-14T14:03:22.821Z,4.47
2023-05-14T14:06:30.090Z,5.13
2023-05-14T14:09:35.965Z,4.07
2023-05-14T14:12:39.291Z,4.30
2023-05-14T14:15:43.752Z,5.47
2023-05-14T14:18:47.078Z,6.07
2023-05-14T14:24:55.100Z,4.28
2023-05-14T14:27:58.549Z,4.43
2023-05-14T14:31:01.939Z,6.63
2023-05-14T14:34:05.669Z,4.65
2023-05-14T14:37:09.108Z,5.50
2023-05-14T14:40:12.751Z,5.38
2023-05-14T14:43:16.649Z,7.35
2023-05-14T14:46:20.057Z,8.20
2023-05-14T14:49:24.331Z,6.05
2023-05-14T14:52:28.411Z,6.35
2023-05-14T14:55:31.793Z,4.75
2023-05-14T14:58:35.218Z,5.50
2023-05-14T15:01:38.638Z,5.90
2023-05-14T15:04:42.058Z,4.97
2023-05-14T15:07:45.465Z,6.40
2023-05-14T15:10:49.090Z,6.30
2023-05-14T15:13:52.483Z,5.10
2023-05-14T15:16:56.039Z,4.73
2023-05-14T15:19:59.442Z,5.63
2023-05-14T15:23:03.280Z,5.25
2023-05-14T15:26:06.767Z,4.57
2023-05-14T15:29:10.167Z,5.88
2023-05-14T15:32:13.604Z,5.73
2023-05-14T15:35:17.119Z,4.65
2023-05-14T15:38:20.497Z,6.45
2023-05-14T15:41:25.732Z,7.80
2023-05-14T15:44:29.395Z,4.80
2023-05-14T15:47:32.988Z,4.67
2023-05-14T15:50:36.506Z,5.15
2023-05-14T15:53:39.990Z,4.90
2023-05-14T15:56:43.382Z,5.07
2023-05-14T15:59:47.788Z,4.50
2023-05-14T16:02:52.801Z,3.90
2023-05-14T16:05:56.413Z,3.85
2023-05-14T16:09:01.076Z,5.13
2023-05-14T16:12:06.045Z,3.70
2023-05-14T16:15:09.860Z,7.03
2023-05-14T16:18:13.206Z,5.63
2023-05-14T16:21:16.629Z,4.60
2023-05-14T16:24:20.272Z,5.07
2023-05-14T16:27:23.771Z,6.95
2023-05-14T16:30:27.207Z,6.75
2023-05-14T16:33:30.702Z,7.03
2023-05-14T16:36:34.073Z,4.13
2023-05-14T16:39:37.470Z,4.78
2023-05-14T16:42:41.535Z,7.10
2023-05-14T16:45:45.027Z,6.53
2023-05-14T16:48:50.694Z,6.57
2023-05-14T16:51:54.191Z,4.40
2023-05-14T16:54:57.536Z,4.68
2023-05-14T16:58:00.909Z,7.25
2023-05-14T17:01:05.296Z,5.85
2023-05-14T17:04:10.237Z,5.73
2023-05-14T17:07:13.690Z,5.25
2023-05-14T17:10:17.209Z,6.22
2023-05-14T17:13:20.894Z,4.60
2023-05-14T17:16:25.458Z,4.35
2023-05-14T17:19:28.861Z,6.10
2023-05-14T17:22:32.612Z,5.78
2023-05-14T17:25:35.996Z,5.88
2023-05-14T17:28:39.346Z,6.13
2023-05-14T17:31:43.171Z,4.65
2023-05-14T17:34:46.681Z,5.07
2023-05-14T17:37:50.136Z,6.22
2023-05-14T17:40:53.754Z,4.30
2023-05-14T17:43:57.177Z,5.50
2023-05-14T17:47:00.988Z,8.40
2023-05-14T17:50:04.728Z,4.80
2023-05-14T17:53:09.016Z,7.13
2023-05-14T17:56:12.484Z,6.70
2023-05-14T17:59:15.866Z,6.75
2023-05-14T18:02:19.195Z,9.88
2023-05-14T18:05:23.018Z,9.30
2023-05-14T18:08:26.925Z,7.00
2023-05-14T18:11:33.959Z,6.13
2023-05-14T18:14:37.560Z,5.38
2023-05-14T18:17:41.007Z,5.53
2023-05-14T18:20:44.488Z,5.83
2023-05-14T18:23:47.902Z,6.68
2023-05-14T18:26:51.408Z,5.85
2023-05-14T18:29:55.211Z,6.93
2023-05-14T18:32:59.942Z,9.88
2023-05-14T18:36:04.161Z,6.43
2023-05-14T18:39:07.609Z,8.27
2023-05-14T18:42:11.034Z,6.55
2023-05-14T18:45:14.445Z,6.57
2023-05-14T18:48:17.931Z,82.95
2023-05-14T18:51:21.270Z,48.67
2023-05-14T18:54:24.568Z,24.90
2023-05-14T18:57:33.022Z,11.57
2023-05-14T19:00:36.357Z,9.63
2023-05-14T19:03:42.239Z,8.43
2023-05-14T19:06:46.184Z,14.53
2023-05-14T19:09:49.989Z,17.50
2023-05-14T19:12:53.664Z,11.07
2023-05-14T19:15:57.235Z,19.15
2023-05-14T19:19:00.864Z,18.88
2023-05-14T19:22:04.457Z,13.53
2023-05-14T19:25:08.497Z,12.15
2023-05-14T19:28:12.098Z,8.18
2023-05-14T19:31:15.908Z,7.25
2023-05-14T19:34:19.276Z,8.63
2023-05-14T19:37:23.049Z,11.23
2023-05-14T19:40:26.438Z,13.00
2023-05-14T19:43:30.169Z,8.27
2023-05-14T19:46:33.886Z,13.98
2023-05-14T19:49:37.838Z,8.82
2023-05-14T19:52:41.357Z,8.53
2023-05-14T19:55:44.815Z,9.02
2023-05-14T19:58:48.453Z,8.27
2023-05-14T20:01:52.028Z,8.32
2023-05-14T20:04:55.587Z,7.28
2023-05-14T20:07:59.150Z,8.27
2023-05-14T20:11:03.357Z,17.00
2023-05-14T20:14:06.695Z,15.85
2023-05-14T20:17:10.252Z,13.98
2023-05-14T20:20:14.242Z,13.52
2023-05-14T20:23:17.623Z,11.73
2023-05-14T20:26:21.350Z,11.85
2023-05-14T20:29:24.866Z,16.45
2023-05-14T20:32:28.337Z,9.27
2023-05-14T20:35:31.725Z,11.65
2023-05-14T20:38:35.247Z,12.20
2023-05-14T20:41:38.970Z,9.60
2023-05-14T20:44:42.309Z,7.60
2023-05-14T20:47:45.985Z,7.38
2023-05-14T20:50:49.328Z,7.65
2023-05-14T20:53:52.637Z,7.70
2023-05-14T20:56:55.966Z,8.82
2023-05-14T20:59:59.257Z,11.75
2023-05-14T21:03:02.749Z,11.48
2023-05-14T21:06:06.309Z,7.03
2023-05-14T21:09:10.820Z,8.13
2023-05-14T21:12:14.199Z,9.43
2023-05-14T21:15:17.643Z,8.27
2023-05-14T21:18:21.048Z,6.13
2023-05-14T21:21:24.522Z,6.50
2023-05-14T21:24:27.847Z,7.50
2023-05-14T21:27:31.197Z,7.57
2023-05-14T21:30:34.495Z,7.95
2023-05-14T21:33:37.801Z,8.63
2023-05-14T21:36:41.199Z,7.65
2023-05-14T21:39:44.574Z,7.90
2023-05-14T21:42:47.922Z,6.93
2023-05-14T21:45:51.235Z,6.75
2023-05-14T21:48:55.386Z,8.18
2023-05-14T21:51:58.825Z,6.25
2023-05-14T21:55:02.085Z,11.13
2023-05-14T21:58:06.666Z,6.53
2023-05-14T22:01:11.593Z,6.32
2023-05-14T22:04:15.112Z,8.57
2023-05-14T22:07:18.822Z,9.52
2023-05-14T22:10:22.186Z,6.83
2023-05-14T22:13:25.548Z,7.70
2023-05-14T22:16:28.917Z,6.05
2023-05-14T22:19:32.209Z,7.97
2023-05-14T22:22:35.875Z,6.93
2023-05-14T22:25:39.247Z,6.90
2023-05-14T22:28:43.734Z,6.75
2023-05-14T22:31:47.090Z,7.13
2023-05-14T22:34:50.732Z,6.80
2023-05-14T22:37:54.062Z,7.35
2023-05-14T22:40:57.388Z,8.27
2023-05-14T22:44:00.884Z,8.63
2023-05-14T22:47:05.569Z,6.78
2023-05-14T22:50:11.592Z,7.22
2023-05-14T22:53:15.044Z,6.30
2023-05-14T22:56:20.466Z,6.60
2023-05-14T22:59:24.044Z,8.13
2023-05-14T23:02:27.521Z,6.78
2023-05-14T23:05:30.944Z,7.90
2023-05-14T23:08:34.300Z,7.40
2023-05-14T23:11:37.785Z,5.77
2023-05-14T23:14:41.110Z,6.82
2023-05-14T23:17:44.615Z,6.25
2023-05-14T23:20:47.990Z,6.65
2023-05-14T23:23:51.293Z,9.40
2023-05-14T23:26:54.763Z,6.83
2023-05-14T23:29:58.128Z,8.77
2023-05-14T23:33:01.604Z,6.28
2023-05-14T23:36:05.214Z,6.55
2023-05-14T23:39:08.725Z,6.63
2023-05-14T23:42:12.090Z,8.03
2023-05-14T23:45:15.417Z,7.60
2023-05-14T23:48:19.453Z,11.73
2023-05-14T23:51:24.111Z,9.32
2023-05-14T23:54:27.428Z,6.85
2023-05-14T23:57:30.801Z,6.63
